sensor_id;sensor_type;location;lat;lon;timestamp;P1;durP1;ratioP1;P2;durP2;ratioP2
42066;SDS011;27734;47.028;28.820;2023-03-01T00:01:17;44.13;;;23.23;;
42066;SDS011;27734;47.028;28.820;2023-03-01T00:03:49;47.93;;;25.97;;
42066;SDS011;27734;47.028;28.820;2023-03-01T00:06:21;46.87;;;25.73;;
42066;SDS011;27734;47.028;28.820;2023-03-01T00:08:53;48.50;;;26.47;;
42066;SDS011;27734;47.028;28.820;2023-03-01T00:11:25;48.23;;;26.47;;
42066;SDS011;27734;47.028;28.820;2023-03-01T00:13:58;47.90;;;26.00;;
42066;SDS011;27734;47.028;28.820;2023-03-01T00:16:33;45.20;;;24.53;;
42066;SDS011;27734;47.028;28.820;2023-03-01T00:19:07;47.20;;;24.27;;
42066;SDS011;27734;47.028;28.820;2023-03-01T00:21:39;49.03;;;24.67;;
42066;SDS011;27734;47.028;28.820;2023-03-01T00:24:11;44.60;;;23.77;;
42066;SDS011;27734;47.028;28.820;2023-03-01T00:26:43;42.83;;;22.03;;
42066;SDS011;27734;47.028;28.820;2023-03-01T00:29:16;44.80;;;22.20;;
42066;SDS011;27734;47.028;28.820;2023-03-01T00:31:47;41.00;;;21.30;;
42066;SDS011;27734;47.028;28.820;2023-03-01T00:34:18;42.47;;;22.17;;
42066;SDS011;27734;47.028;28.820;2023-03-01T00:36:49;42.47;;;21.70;;
42066;SDS011;27734;47.028;28.820;2023-03-01T00:39:21;41.93;;;22.23;;
42066;SDS011;27734;47.028;28.820;2023-03-01T00:41:52;40.30;;;21.17;;
42066;SDS011;27734;47.028;28.820;2023-03-01T00:44:24;40.80;;;21.13;;
42066;SDS011;27734;47.028;28.820;2023-03-01T00:46:56;41.60;;;22.10;;
42066;SDS011;27734;47.028;28.820;2023-03-01T00:49:28;41.33;;;21.93;;
42066;SDS011;27734;47.028;28.820;2023-03-01T00:51:59;44.03;;;22.43;;
42066;SDS011;27734;47.028;28.820;2023-03-01T00:54:30;44.70;;;22.93;;
42066;SDS011;27734;47.028;28.820;2023-03-01T00:57:02;41.97;;;21.13;;
42066;SDS011;27734;47.028;28.820;2023-03-01T00:59:33;39.57;;;21.10;;
42066;SDS011;27734;47.028;28.820;2023-03-01T01:02:04;42.93;;;23.17;;
42066;SDS011;27734;47.028;28.820;2023-03-01T01:04:36;42.27;;;21.57;;
42066;SDS011;27734;47.028;28.820;2023-03-01T01:07:07;40.73;;;22.00;;
42066;SDS011;27734;47.028;28.820;2023-03-01T01:09:38;35.97;;;18.43;;
42066;SDS011;27734;47.028;28.820;2023-03-01T01:12:10;39.37;;;19.73;;
42066;SDS011;27734;47.028;28.820;2023-03-01T01:14:42;39.57;;;19.60;;
42066;SDS011;27734;47.028;28.820;2023-03-01T01:17:13;36.27;;;19.70;;
42066;SDS011;27734;47.028;28.820;2023-03-01T01:19:44;39.57;;;20.40;;
42066;SDS011;27734;47.028;28.820;2023-03-01T01:22:15;41.07;;;20.90;;
42066;SDS011;27734;47.028;28.820;2023-03-01T01:24:47;39.93;;;20.07;;
42066;SDS011;27734;47.028;28.820;2023-03-01T01:27:18;38.37;;;20.30;;
42066;SDS011;27734;47.028;28.820;2023-03-01T01:29:49;42.77;;;22.33;;
42066;SDS011;27734;47.028;28.820;2023-03-01T01:32:21;41.23;;;21.50;;
42066;SDS011;27734;47.028;28.820;2023-03-01T01:34:53;40.00;;;20.80;;
42066;SDS011;27734;47.028;28.820;2023-03-01T01:37:24;41.50;;;21.17;;
42066;SDS011;27734;47.028;28.820;2023-03-01T01:39:59;41.60;;;20.53;;
42066;SDS011;27734;47.028;28.820;2023-03-01T01:42:32;41.63;;;22.17;;
42066;SDS011;27734;47.028;28.820;2023-03-01T01:45:24;39.95;;;21.60;;
42066;SDS011;27734;47.028;28.820;2023-03-01T01:47:59;40.63;;;20.93;;
42066;SDS011;27734;47.028;28.820;2023-03-01T01:50:33;39.10;;;20.37;;
42066;SDS011;27734;47.028;28.820;2023-03-01T01:53:09;41.57;;;22.00;;
42066;SDS011;27734;47.028;28.820;2023-03-01T01:55:45;38.73;;;20.80;;
42066;SDS011;27734;47.028;28.820;2023-03-01T01:58:21;41.97;;;21.43;;
42066;SDS011;27734;47.028;28.820;2023-03-01T02:00:53;41.60;;;22.43;;
42066;SDS011;27734;47.028;28.820;2023-03-01T02:03:26;43.90;;;22.00;;
42066;SDS011;27734;47.028;28.820;2023-03-01T02:06:03;43.55;;;22.50;;
42066;SDS011;27734;47.028;28.820;2023-03-01T02:08:40;48.50;;;22.73;;
42066;SDS011;27734;47.028;28.820;2023-03-01T02:11:13;46.33;;;22.07;;
42066;SDS011;27734;47.028;28.820;2023-03-01T02:13:46;45.07;;;22.27;;
42066;SDS011;27734;47.028;28.820;2023-03-01T02:16:18;42.73;;;22.63;;
42066;SDS011;27734;47.028;28.820;2023-03-01T02:18:50;42.10;;;22.20;;
42066;SDS011;27734;47.028;28.820;2023-03-01T02:21:27;40.93;;;21.93;;
42066;SDS011;27734;47.028;28.820;2023-03-01T02:24:08;42.08;;;20.95;;
42066;SDS011;27734;47.028;28.820;2023-03-01T02:26:48;42.00;;;21.60;;
42066;SDS011;27734;47.028;28.820;2023-03-01T02:29:23;40.67;;;21.30;;
42066;SDS011;27734;47.028;28.820;2023-03-01T02:31:56;44.83;;;21.50;;
42066;SDS011;27734;47.028;28.820;2023-03-01T02:37:01;42.23;;;20.43;;
42066;SDS011;27734;47.028;28.820;2023-03-01T02:39:36;39.50;;;20.83;;
42066;SDS011;27734;47.028;28.820;2023-03-01T02:42:13;40.10;;;21.10;;
42066;SDS011;27734;47.028;28.820;2023-03-01T02:44:48;41.40;;;21.40;;
42066;SDS011;27734;47.028;28.820;2023-03-01T02:47:19;40.33;;;19.70;;
42066;SDS011;27734;47.028;28.820;2023-03-01T02:49:51;35.70;;;18.17;;
42066;SDS011;27734;47.028;28.820;2023-03-01T02:55:13;40.43;;;19.43;;
42066;SDS011;27734;47.028;28.820;2023-03-01T02:57:46;40.50;;;19.27;;
42066;SDS011;27734;47.028;28.820;2023-03-01T03:00:19;36.83;;;18.93;;
42066;SDS011;27734;47.028;28.820;2023-03-01T03:02:54;35.47;;;17.60;;
42066;SDS011;27734;47.028;28.820;2023-03-01T03:05:26;35.83;;;18.40;;
42066;SDS011;27734;47.028;28.820;2023-03-01T03:08:01;33.58;;;16.42;;
42066;SDS011;27734;47.028;28.820;2023-03-01T03:10:37;35.20;;;16.55;;
42066;SDS011;27734;47.028;28.820;2023-03-01T03:15:41;34.60;;;16.53;;
42066;SDS011;27734;47.028;28.820;2023-03-01T03:18:14;39.97;;;19.20;;
42066;SDS011;27734;47.028;28.820;2023-03-01T03:20:46;34.53;;;18.87;;
42066;SDS011;27734;47.028;28.820;2023-03-01T03:25:50;38.27;;;18.63;;
42066;SDS011;27734;47.028;28.820;2023-03-01T03:28:22;39.80;;;19.37;;
42066;SDS011;27734;47.028;28.820;2023-03-01T03:30:53;40.87;;;19.27;;
42066;SDS011;27734;47.028;28.820;2023-03-01T03:33:24;36.63;;;18.30;;
42066;SDS011;27734;47.028;28.820;2023-03-01T03:35:56;33.20;;;16.67;;
42066;SDS011;27734;47.028;28.820;2023-03-01T03:38:27;36.43;;;17.50;;
42066;SDS011;27734;47.028;28.820;2023-03-01T03:41:02;35.53;;;17.50;;
42066;SDS011;27734;47.028;28.820;2023-03-01T03:43:36;34.93;;;17.20;;
42066;SDS011;27734;47.028;28.820;2023-03-01T03:46:08;34.73;;;17.63;;
42066;SDS011;27734;47.028;28.820;2023-03-01T03:48:42;32.90;;;17.57;;
42066;SDS011;27734;47.028;28.820;2023-03-01T03:51:15;35.00;;;16.42;;
42066;SDS011;27734;47.028;28.820;2023-03-01T03:53:47;36.20;;;17.45;;
42066;SDS011;27734;47.028;28.820;2023-03-01T03:56:19;33.93;;;16.97;;
42066;SDS011;27734;47.028;28.820;2023-03-01T03:58:54;33.33;;;17.17;;
42066;SDS011;27734;47.028;28.820;2023-03-01T04:01:25;38.80;;;18.67;;
42066;SDS011;27734;47.028;28.820;2023-03-01T04:03:56;37.53;;;18.67;;
42066;SDS011;27734;47.028;28.820;2023-03-01T04:06:32;36.40;;;18.40;;
42066;SDS011;27734;47.028;28.820;2023-03-01T04:09:03;37.90;;;17.27;;
42066;SDS011;27734;47.028;28.820;2023-03-01T04:11:34;35.87;;;17.90;;
42066;SDS011;27734;47.028;28.820;2023-03-01T04:14:06;36.73;;;18.70;;
42066;SDS011;27734;47.028;28.820;2023-03-01T04:16:39;35.83;;;19.20;;
42066;SDS011;27734;47.028;28.820;2023-03-01T04:19:10;40.13;;;19.43;;
42066;SDS011;27734;47.028;28.820;2023-03-01T04:21:43;37.63;;;18.83;;
42066;SDS011;27734;47.028;28.820;2023-03-01T04:24:14;42.13;;;19.47;;
42066;SDS011;27734;47.028;28.820;2023-03-01T04:26:45;40.43;;;19.53;;
42066;SDS011;27734;47.028;28.820;2023-03-01T04:29:16;40.55;;;20.95;;
42066;SDS011;27734;47.028;28.820;2023-03-01T04:31:48;37.97;;;18.77;;
42066;SDS011;27734;47.028;28.820;2023-03-01T04:34:20;39.03;;;18.67;;
42066;SDS011;27734;47.028;28.820;2023-03-01T04:36:51;39.00;;;18.50;;
42066;SDS011;27734;47.028;28.820;2023-03-01T04:39:22;40.63;;;18.07;;
42066;SDS011;27734;47.028;28.820;2023-03-01T04:41:54;41.40;;;19.60;;
42066;SDS011;27734;47.028;28.820;2023-03-01T04:44:25;34.10;;;18.00;;
42066;SDS011;27734;47.028;28.820;2023-03-01T04:46:56;35.73;;;17.47;;
42066;SDS011;27734;47.028;28.820;2023-03-01T04:49:28;35.50;;;17.53;;
42066;SDS011;27734;47.028;28.820;2023-03-01T04:51:59;35.20;;;16.90;;
42066;SDS011;27734;47.028;28.820;2023-03-01T04:54:31;35.70;;;16.53;;
42066;SDS011;27734;47.028;28.820;2023-03-01T04:57:03;32.87;;;16.27;;
42066;SDS011;27734;47.028;28.820;2023-03-01T04:59:34;34.77;;;16.43;;
42066;SDS011;27734;47.028;28.820;2023-03-01T05:02:06;30.33;;;15.23;;
42066;SDS011;27734;47.028;28.820;2023-03-01T05:04:37;32.13;;;15.67;;
42066;SDS011;27734;47.028;28.820;2023-03-01T05:07:08;35.17;;;16.60;;
42066;SDS011;27734;47.028;28.820;2023-03-01T05:09:41;38.00;;;16.70;;
42066;SDS011;27734;47.028;28.820;2023-03-01T05:12:12;34.90;;;16.07;;
42066;SDS011;27734;47.028;28.820;2023-03-01T05:14:44;34.67;;;15.50;;
42066;SDS011;27734;47.028;28.820;2023-03-01T05:17:15;36.27;;;17.40;;
42066;SDS011;27734;47.028;28.820;2023-03-01T05:19:46;34.40;;;16.57;;
42066;SDS011;27734;47.028;28.820;2023-03-01T05:22:18;35.40;;;17.10;;
42066;SDS011;27734;47.028;28.820;2023-03-01T05:24:49;32.07;;;15.73;;
42066;SDS011;27734;47.028;28.820;2023-03-01T05:27:23;36.00;;;15.87;;
42066;SDS011;27734;47.028;28.820;2023-03-01T05:29:54;33.23;;;15.63;;
42066;SDS011;27734;47.028;28.820;2023-03-01T05:32:26;33.27;;;16.47;;
42066;SDS011;27734;47.028;28.820;2023-03-01T05:35:00;32.80;;;15.63;;
42066;SDS011;27734;47.028;28.820;2023-03-01T05:37:31;31.83;;;14.43;;
42066;SDS011;27734;47.028;28.820;2023-03-01T05:40:04;32.73;;;14.70;;
42066;SDS011;27734;47.028;28.820;2023-03-01T05:42:44;30.73;;;15.13;;
42066;SDS011;27734;47.028;28.820;2023-03-01T05:45:17;33.83;;;15.05;;
42066;SDS011;27734;47.028;28.820;2023-03-01T05:47:49;32.50;;;13.80;;
42066;SDS011;27734;47.028;28.820;2023-03-01T05:50:21;32.87;;;15.23;;
42066;SDS011;27734;47.028;28.820;2023-03-01T05:53:00;30.92;;;15.53;;
42066;SDS011;27734;47.028;28.820;2023-03-01T05:55:34;33.40;;;15.60;;
42066;SDS011;27734;47.028;28.820;2023-03-01T05:58:07;28.60;;;13.53;;
42066;SDS011;27734;47.028;28.820;2023-03-01T06:00:46;30.00;;;13.73;;
42066;SDS011;27734;47.028;28.820;2023-03-01T06:03:19;32.13;;;14.00;;
42066;SDS011;27734;47.028;28.820;2023-03-01T06:05:55;28.80;;;14.10;;
42066;SDS011;27734;47.028;28.820;2023-03-01T06:08:26;29.77;;;14.23;;
42066;SDS011;27734;47.028;28.820;2023-03-01T06:10:59;28.57;;;12.70;;
42066;SDS011;27734;47.028;28.820;2023-03-01T06:13:33;33.03;;;14.40;;
42066;SDS011;27734;47.028;28.820;2023-03-01T06:16:07;30.30;;;13.37;;
42066;SDS011;27734;47.028;28.820;2023-03-01T06:18:40;28.35;;;13.18;;
42066;SDS011;27734;47.028;28.820;2023-03-01T06:21:11;29.97;;;14.63;;
42066;SDS011;27734;47.028;28.820;2023-03-01T06:23:45;28.57;;;13.67;;
42066;SDS011;27734;47.028;28.820;2023-03-01T06:26:16;29.77;;;14.37;;
42066;SDS011;27734;47.028;28.820;2023-03-01T06:28:47;28.70;;;14.00;;
42066;SDS011;27734;47.028;28.820;2023-03-01T06:31:20;32.37;;;15.67;;
42066;SDS011;27734;47.028;28.820;2023-03-01T06:33:52;30.60;;;14.37;;
42066;SDS011;27734;47.028;28.820;2023-03-01T06:36:48;30.90;;;14.75;;
42066;SDS011;27734;47.028;28.820;2023-03-01T06:39:20;34.10;;;15.57;;
42066;SDS011;27734;47.028;28.820;2023-03-01T06:45:10;29.73;;;14.17;;
42066;SDS011;27734;47.028;28.820;2023-03-01T06:47:42;30.63;;;14.50;;
42066;SDS011;27734;47.028;28.820;2023-03-01T06:52:46;28.03;;;14.27;;
42066;SDS011;27734;47.028;28.820;2023-03-01T06:55:17;32.53;;;15.90;;
42066;SDS011;27734;47.028;28.820;2023-03-01T06:58:02;33.10;;;15.45;;
42066;SDS011;27734;47.028;28.820;2023-03-01T07:00:36;32.07;;;15.23;;
42066;SDS011;27734;47.028;28.820;2023-03-01T07:03:09;35.43;;;16.43;;
42066;SDS011;27734;47.028;28.820;2023-03-01T07:05:40;32.17;;;15.47;;
42066;SDS011;27734;47.028;28.820;2023-03-01T07:08:15;34.83;;;16.20;;
42066;SDS011;27734;47.028;28.820;2023-03-01T07:10:46;33.70;;;15.87;;
42066;SDS011;27734;47.028;28.820;2023-03-01T07:13:28;31.80;;;15.43;;
42066;SDS011;27734;47.028;28.820;2023-03-01T07:16:14;31.97;;;14.97;;
42066;SDS011;27734;47.028;28.820;2023-03-01T07:18:55;30.73;;;14.87;;
42066;SDS011;27734;47.028;28.820;2023-03-01T07:21:27;32.83;;;16.07;;
42066;SDS011;27734;47.028;28.820;2023-03-01T07:23:58;31.57;;;14.80;;
42066;SDS011;27734;47.028;28.820;2023-03-01T07:26:30;34.27;;;15.57;;
42066;SDS011;27734;47.028;28.820;2023-03-01T07:29:04;30.93;;;14.50;;
42066;SDS011;27734;47.028;28.820;2023-03-01T07:31:38;36.60;;;15.65;;
42066;SDS011;27734;47.028;28.820;2023-03-01T07:34:17;31.23;;;13.63;;
42066;SDS011;27734;47.028;28.820;2023-03-01T07:36:52;29.13;;;14.97;;
42066;SDS011;27734;47.028;28.820;2023-03-01T07:42:14;31.20;;;14.33;;
42066;SDS011;27734;47.028;28.820;2023-03-01T07:44:47;29.33;;;13.70;;
42066;SDS011;27734;47.028;28.820;2023-03-01T07:47:20;28.37;;;13.83;;
42066;SDS011;27734;47.028;28.820;2023-03-01T07:50:10;30.30;;;14.60;;
42066;SDS011;27734;47.028;28.820;2023-03-01T07:52:51;32.10;;;14.47;;
42066;SDS011;27734;47.028;28.820;2023-03-01T07:55:39;29.20;;;13.53;;
42066;SDS011;27734;47.028;28.820;2023-03-01T07:58:17;31.25;;;13.45;;
42066;SDS011;27734;47.028;28.820;2023-03-01T08:00:53;34.00;;;15.20;;
42066;SDS011;27734;47.028;28.820;2023-03-01T08:03:32;28.43;;;13.73;;
42066;SDS011;27734;47.028;28.820;2023-03-01T08:06:08;33.37;;;13.30;;
42066;SDS011;27734;47.028;28.820;2023-03-01T08:08:45;28.47;;;12.53;;
42066;SDS011;27734;47.028;28.820;2023-03-01T08:11:18;26.53;;;12.93;;
42066;SDS011;27734;47.028;28.820;2023-03-01T08:13:56;26.30;;;12.73;;
42066;SDS011;27734;47.028;28.820;2023-03-01T08:16:33;27.40;;;12.40;;
42066;SDS011;27734;47.028;28.820;2023-03-01T08:19:17;26.07;;;11.60;;
42066;SDS011;27734;47.028;28.820;2023-03-01T08:21:55;26.57;;;12.50;;
42066;SDS011;27734;47.028;28.820;2023-03-01T08:24:31;25.00;;;12.87;;
42066;SDS011;27734;47.028;28.820;2023-03-01T08:27:07;29.20;;;13.27;;
42066;SDS011;27734;47.028;28.820;2023-03-01T08:29:45;27.90;;;13.65;;
42066;SDS011;27734;47.028;28.820;2023-03-01T08:32:32;30.73;;;14.13;;
42066;SDS011;27734;47.028;28.820;2023-03-01T08:35:13;28.03;;;12.83;;
42066;SDS011;27734;47.028;28.820;2023-03-01T08:37:48;28.77;;;13.83;;
42066;SDS011;27734;47.028;28.820;2023-03-01T08:40:24;29.60;;;12.70;;
42066;SDS011;27734;47.028;28.820;2023-03-01T08:42:59;27.37;;;12.03;;
42066;SDS011;27734;47.028;28.820;2023-03-01T08:45:40;26.77;;;13.07;;
42066;SDS011;27734;47.028;28.820;2023-03-01T08:48:17;26.07;;;13.10;;
42066;SDS011;27734;47.028;28.820;2023-03-01T08:50:54;28.67;;;12.33;;
42066;SDS011;27734;47.028;28.820;2023-03-01T08:53:29;28.97;;;13.07;;
42066;SDS011;27734;47.028;28.820;2023-03-01T08:56:05;26.13;;;12.03;;
42066;SDS011;27734;47.028;28.820;2023-03-01T08:58:38;27.43;;;13.37;;
42066;SDS011;27734;47.028;28.820;2023-03-01T09:01:14;26.53;;;12.73;;
42066;SDS011;27734;47.028;28.820;2023-03-01T09:03:47;28.65;;;12.40;;
42066;SDS011;27734;47.028;28.820;2023-03-01T09:06:27;25.63;;;12.70;;
42066;SDS011;27734;47.028;28.820;2023-03-01T09:09:02;26.60;;;12.47;;
42066;SDS011;27734;47.028;28.820;2023-03-01T09:11:46;26.93;;;12.97;;
42066;SDS011;27734;47.028;28.820;2023-03-01T09:14:25;25.77;;;12.47;;
42066;SDS011;27734;47.028;28.820;2023-03-01T09:16:59;27.60;;;12.30;;
42066;SDS011;27734;47.028;28.820;2023-03-01T09:19:38;25.30;;;12.37;;
42066;SDS011;27734;47.028;28.820;2023-03-01T09:22:13;25.85;;;11.55;;
42066;SDS011;27734;47.028;28.820;2023-03-01T09:24:47;28.43;;;12.40;;
42066;SDS011;27734;47.028;28.820;2023-03-01T09:27:21;23.27;;;10.93;;
42066;SDS011;27734;47.028;28.820;2023-03-01T09:29:56;23.10;;;11.83;;
42066;SDS011;27734;47.028;28.820;2023-03-01T09:32:31;26.53;;;11.67;;
42066;SDS011;27734;47.028;28.820;2023-03-01T09:35:05;22.17;;;11.63;;
42066;SDS011;27734;47.028;28.820;2023-03-01T09:37:38;26.62;;;12.18;;
42066;SDS011;27734;47.028;28.820;2023-03-01T09:40:15;24.20;;;11.43;;
42066;SDS011;27734;47.028;28.820;2023-03-01T09:42:54;23.50;;;11.95;;
42066;SDS011;27734;47.028;28.820;2023-03-01T09:45:33;26.15;;;12.10;;
42066;SDS011;27734;47.028;28.820;2023-03-01T09:48:16;23.63;;;11.90;;
42066;SDS011;27734;47.028;28.820;2023-03-01T09:50:54;24.07;;;11.73;;
42066;SDS011;27734;47.028;28.820;2023-03-01T09:57:04;23.30;;;11.93;;
42066;SDS011;27734;47.028;28.820;2023-03-01T09:59:56;24.50;;;12.80;;
42066;SDS011;27734;47.028;28.820;2023-03-01T10:02:49;30.10;;;12.43;;
42066;SDS011;27734;47.028;28.820;2023-03-01T10:05:38;26.37;;;13.80;;
42066;SDS011;27734;47.028;28.820;2023-03-01T10:08:28;26.97;;;11.67;;
42066;SDS011;27734;47.028;28.820;2023-03-01T10:11:20;26.20;;;11.97;;
42066;SDS011;27734;47.028;28.820;2023-03-01T10:13:59;26.33;;;12.90;;
42066;SDS011;27734;47.028;28.820;2023-03-01T10:16:40;25.93;;;11.57;;
42066;SDS011;27734;47.028;28.820;2023-03-01T10:19:20;26.17;;;12.00;;
42066;SDS011;27734;47.028;28.820;2023-03-01T10:22:02;23.80;;;11.47;;
42066;SDS011;27734;47.028;28.820;2023-03-01T10:24:42;24.93;;;12.20;;
42066;SDS011;27734;47.028;28.820;2023-03-01T10:27:17;25.70;;;12.30;;
42066;SDS011;27734;47.028;28.820;2023-03-01T10:29:58;26.37;;;12.93;;
42066;SDS011;27734;47.028;28.820;2023-03-01T10:32:41;27.02;;;12.13;;
42066;SDS011;27734;47.028;28.820;2023-03-01T10:35:21;24.37;;;12.67;;
42066;SDS011;27734;47.028;28.820;2023-03-01T10:38:15;26.90;;;11.87;;
42066;SDS011;27734;47.028;28.820;2023-03-01T10:40:55;26.15;;;11.80;;
42066;SDS011;27734;47.028;28.820;2023-03-01T10:43:40;24.40;;;11.47;;
42066;SDS011;27734;47.028;28.820;2023-03-01T10:46:33;25.47;;;12.83;;
42066;SDS011;27734;47.028;28.820;2023-03-01T10:49:15;24.80;;;12.63;;
42066;SDS011;27734;47.028;28.820;2023-03-01T10:54:54;24.83;;;11.00;;
42066;SDS011;27734;47.028;28.820;2023-03-01T10:57:36;25.33;;;12.30;;
42066;SDS011;27734;47.028;28.820;2023-03-01T11:00:21;23.73;;;11.67;;
42066;SDS011;27734;47.028;28.820;2023-03-01T11:03:12;26.90;;;12.27;;
42066;SDS011;27734;47.028;28.820;2023-03-01T11:05:54;23.67;;;11.77;;
42066;SDS011;27734;47.028;28.820;2023-03-01T11:08:38;26.60;;;12.57;;
42066;SDS011;27734;47.028;28.820;2023-03-01T11:14:03;28.30;;;12.43;;
42066;SDS011;27734;47.028;28.820;2023-03-01T11:16:45;26.27;;;12.13;;
42066;SDS011;27734;47.028;28.820;2023-03-01T11:19:29;25.02;;;12.40;;
42066;SDS011;27734;47.028;28.820;2023-03-01T11:22:03;22.47;;;11.30;;
42066;SDS011;27734;47.028;28.820;2023-03-01T11:24:41;24.47;;;12.60;;
42066;SDS011;27734;47.028;28.820;2023-03-01T11:27:18;23.67;;;11.57;;
42066;SDS011;27734;47.028;28.820;2023-03-01T11:30:02;24.50;;;12.47;;
42066;SDS011;27734;47.028;28.820;2023-03-01T11:32:45;24.23;;;12.13;;
42066;SDS011;27734;47.028;28.820;2023-03-01T11:35:24;23.83;;;11.63;;
42066;SDS011;27734;47.028;28.820;2023-03-01T11:38:02;24.13;;;12.90;;
42066;SDS011;27734;47.028;28.820;2023-03-01T11:40:57;23.63;;;11.80;;
42066;SDS011;27734;47.028;28.820;2023-03-01T11:43:44;24.03;;;11.80;;
42066;SDS011;27734;47.028;28.820;2023-03-01T11:46:49;25.75;;;12.50;;
42066;SDS011;27734;47.028;28.820;2023-03-01T11:49:53;27.15;;;11.60;;
42066;SDS011;27734;47.028;28.820;2023-03-01T11:52:48;24.60;;;12.10;;
42066;SDS011;27734;47.028;28.820;2023-03-01T11:55:40;28.33;;;12.33;;
42066;SDS011;27734;47.028;28.820;2023-03-01T11:58:48;23.77;;;12.03;;
42066;SDS011;27734;47.028;28.820;2023-03-01T12:01:42;23.83;;;12.43;;
42066;SDS011;27734;47.028;28.820;2023-03-01T12:05:00;22.57;;;11.00;;
42066;SDS011;27734;47.028;28.820;2023-03-01T12:08:00;25.47;;;12.63;;
42066;SDS011;27734;47.028;28.820;2023-03-01T12:10:49;28.43;;;12.57;;
42066;SDS011;27734;47.028;28.820;2023-03-01T12:13:49;33.27;;;13.60;;
42066;SDS011;27734;47.028;28.820;2023-03-01T12:16:51;32.03;;;14.27;;
42066;SDS011;27734;47.028;28.820;2023-03-01T12:19:44;25.70;;;13.20;;
42066;SDS011;27734;47.028;28.820;2023-03-01T12:22:47;24.50;;;12.53;;
42066;SDS011;27734;47.028;28.820;2023-03-01T12:25:37;24.30;;;12.40;;
42066;SDS011;27734;47.028;28.820;2023-03-01T12:31:16;26.83;;;13.47;;
42066;SDS011;27734;47.028;28.820;2023-03-01T12:34:20;25.40;;;13.17;;
42066;SDS011;27734;47.028;28.820;2023-03-01T12:40:15;25.27;;;12.70;;
42066;SDS011;27734;47.028;28.820;2023-03-01T12:43:10;27.87;;;13.23;;
42066;SDS011;27734;47.028;28.820;2023-03-01T12:46:01;27.43;;;13.57;;
42066;SDS011;27734;47.028;28.820;2023-03-01T12:48:50;29.75;;;14.20;;
42066;SDS011;27734;47.028;28.820;2023-03-01T12:51:33;34.33;;;15.10;;
42066;SDS011;27734;47.028;28.820;2023-03-01T12:54:15;33.70;;;15.53;;
42066;SDS011;27734;47.028;28.820;2023-03-01T12:56:52;31.90;;;14.60;;
42066;SDS011;27734;47.028;28.820;2023-03-01T12:59:32;32.87;;;14.30;;
42066;SDS011;27734;47.028;28.820;2023-03-01T13:02:38;27.93;;;13.80;;
42066;SDS011;27734;47.028;28.820;2023-03-01T13:08:15;26.83;;;13.87;;
42066;SDS011;27734;47.028;28.820;2023-03-01T13:10:53;27.97;;;14.07;;
42066;SDS011;27734;47.028;28.820;2023-03-01T13:13:34;31.90;;;14.77;;
42066;SDS011;27734;47.028;28.820;2023-03-01T13:16:38;29.00;;;14.80;;
42066;SDS011;27734;47.028;28.820;2023-03-01T13:19:15;27.10;;;13.63;;
42066;SDS011;27734;47.028;28.820;2023-03-01T13:21:51;29.80;;;14.67;;
42066;SDS011;27734;47.028;28.820;2023-03-01T13:24:27;26.93;;;14.35;;
42066;SDS011;27734;47.028;28.820;2023-03-01T13:30:00;28.10;;;13.90;;
42066;SDS011;27734;47.028;28.820;2023-03-01T13:32:34;26.70;;;13.55;;
42066;SDS011;27734;47.028;28.820;2023-03-01T13:41:45;26.17;;;13.63;;
42066;SDS011;27734;47.028;28.820;2023-03-01T13:44:43;26.43;;;13.17;;
42066;SDS011;27734;47.028;28.820;2023-03-01T13:47:17;28.03;;;14.07;;
42066;SDS011;27734;47.028;28.820;2023-03-01T13:52:50;26.43;;;12.37;;
42066;SDS011;27734;47.028;28.820;2023-03-01T13:55:30;26.93;;;13.10;;
42066;SDS011;27734;47.028;28.820;2023-03-01T13:58:15;28.13;;;12.37;;
42066;SDS011;27734;47.028;28.820;2023-03-01T14:00:57;25.05;;;12.00;;
42066;SDS011;27734;47.028;28.820;2023-03-01T14:03:31;28.02;;;12.47;;
42066;SDS011;27734;47.028;28.820;2023-03-01T14:06:06;26.73;;;11.70;;
42066;SDS011;27734;47.028;28.820;2023-03-01T14:08:44;22.37;;;10.70;;
42066;SDS011;27734;47.028;28.820;2023-03-01T14:11:32;24.50;;;10.87;;
42066;SDS011;27734;47.028;28.820;2023-03-01T14:14:15;24.65;;;11.15;;
42066;SDS011;27734;47.028;28.820;2023-03-01T14:17:06;24.43;;;11.80;;
42066;SDS011;27734;47.028;28.820;2023-03-01T14:22:27;28.67;;;11.93;;
42066;SDS011;27734;47.028;28.820;2023-03-01T14:25:05;27.90;;;11.40;;
42066;SDS011;27734;47.028;28.820;2023-03-01T14:27:50;24.07;;;11.23;;
42066;SDS011;27734;47.028;28.820;2023-03-01T14:30:26;26.53;;;11.60;;
42066;SDS011;27734;47.028;28.820;2023-03-01T14:33:04;27.00;;;11.07;;
42066;SDS011;27734;47.028;28.820;2023-03-01T14:35:53;23.70;;;10.87;;
42066;SDS011;27734;47.028;28.820;2023-03-01T14:38:34;27.00;;;11.93;;
42066;SDS011;27734;47.028;28.820;2023-03-01T14:41:08;23.43;;;11.03;;
42066;SDS011;27734;47.028;28.820;2023-03-01T14:43:45;29.80;;;13.30;;
42066;SDS011;27734;47.028;28.820;2023-03-01T14:46:25;25.77;;;12.00;;
42066;SDS011;27734;47.028;28.820;2023-03-01T14:49:12;29.50;;;11.80;;
42066;SDS011;27734;47.028;28.820;2023-03-01T14:51:52;28.07;;;12.63;;
42066;SDS011;27734;47.028;28.820;2023-03-01T14:54:31;26.23;;;12.03;;
42066;SDS011;27734;47.028;28.820;2023-03-01T14:57:13;26.23;;;11.97;;
42066;SDS011;27734;47.028;28.820;2023-03-01T14:59:47;25.13;;;12.43;;
42066;SDS011;27734;47.028;28.820;2023-03-01T15:02:24;26.17;;;11.13;;
42066;SDS011;27734;47.028;28.820;2023-03-01T15:04:58;23.90;;;11.20;;
42066;SDS011;27734;47.028;28.820;2023-03-01T15:07:33;30.67;;;11.90;;
42066;SDS011;27734;47.028;28.820;2023-03-01T15:10:16;26.43;;;11.73;;
42066;SDS011;27734;47.028;28.820;2023-03-01T15:13:14;28.40;;;12.20;;
42066;SDS011;27734;47.028;28.820;2023-03-01T15:15:59;28.20;;;12.40;;
42066;SDS011;27734;47.028;28.820;2023-03-01T15:18:43;25.10;;;11.90;;
42066;SDS011;27734;47.028;28.820;2023-03-01T15:21:22;25.60;;;11.33;;
42066;SDS011;27734;47.028;28.820;2023-03-01T15:24:06;24.37;;;11.48;;
42066;SDS011;27734;47.028;28.820;2023-03-01T15:26:51;26.60;;;11.23;;
42066;SDS011;27734;47.028;28.820;2023-03-01T15:29:26;24.97;;;12.20;;
42066;SDS011;27734;47.028;28.820;2023-03-01T15:32:22;22.50;;;11.43;;
42066;SDS011;27734;47.028;28.820;2023-03-01T15:35:00;24.97;;;11.93;;
42066;SDS011;27734;47.028;28.820;2023-03-01T15:37:56;25.40;;;12.40;;
42066;SDS011;27734;47.028;28.820;2023-03-01T15:40:30;25.30;;;12.00;;
42066;SDS011;27734;47.028;28.820;2023-03-01T15:43:36;24.87;;;12.00;;
42066;SDS011;27734;47.028;28.820;2023-03-01T15:46:17;29.20;;;13.47;;
42066;SDS011;27734;47.028;28.820;2023-03-01T15:49:02;28.30;;;13.80;;
42066;SDS011;27734;47.028;28.820;2023-03-01T15:51:38;28.97;;;14.03;;
42066;SDS011;27734;47.028;28.820;2023-03-01T15:54:12;26.97;;;14.10;;
42066;SDS011;27734;47.028;28.820;2023-03-01T15:56:49;29.50;;;14.53;;
42066;SDS011;27734;47.028;28.820;2023-03-01T15:59:23;31.43;;;15.40;;
42066;SDS011;27734;47.028;28.820;2023-03-01T16:01:55;29.63;;;14.67;;